C1 — V7EW9 — position and weather

sailwx.info

Track history (hours):
 
Tides and Currents Weather Stations Pressure Air Temp Water Temp Dewpoint Dewpoint Depression Visibility Wind Speed Wind Dir Waves Ship Positions

C1

Last reported at 2014-Nov-16 16:20 UTC. Time now 2014-Nov-29 02:25 UTC.
Position N 26°02' W 079°37'.
Warning: this ship's position is 12 days out of date.

Length 30 m.

Type: Pleasure craft. MMSI: 338093905.

Date/timePositionNaut miles runAvg speedWind from/ knotsBaromVisibWave heightAir tempDewpointWater temp
2014-Nov-16 16:20N 26°02' W 079°37'8 9.2
2014-Nov-16 15:31N 26°03' W 079°45'9 9.2
2014-Nov-16 14:30N 26°04' W 079°55'9 9.7
2014-Nov-16 13:33N 26°06' W 080°05'2 1.7
2014-Nov-16 12:32N 26°07' W 080°06'0 0.0
2014-Nov-16 11:32N 26°07' W 080°06'0 0.0
2014-Nov-16 10:23N 26°07' W 080°06'0 0.0
2014-Nov-16 09:26N 26°07' W 080°06'0 0.0
2014-Nov-16 08:26N 26°07' W 080°06'0 0.0
2014-Nov-16 07:29N 26°07' W 080°06'0 0.0
2014-Nov-16 06:29N 26°07' W 080°06'0 0.0
2014-Nov-16 05:26N 26°07' W 080°06'0 0.0
2014-Nov-16 04:32N 26°07' W 080°06'0 0.0
2014-Nov-16 03:29N 26°07' W 080°06'0 0.0
2014-Nov-16 02:32N 26°07' W 080°06'0 0.0
2014-Nov-16 01:32N 26°07' W 080°06'0 0.0
2014-Nov-16 00:32N 26°07' W 080°06'0 0.0
2014-Nov-15 23:32N 26°07' W 080°06'0 0.0
2014-Nov-15 22:23N 26°07' W 080°06'0 0.0
2014-Nov-15 21:26N 26°07' W 080°06'0 0.0
2014-Nov-15 20:26N 26°07' W 080°06'0 0.0
2014-Nov-15 19:26N 26°07' W 080°06'1 0.8
2014-Nov-15 18:28N 26°06' W 080°07'1 0.5
2014-Nov-15 17:23N 26°06' W 080°07'0 0.0
2014-Nov-15 16:26N 26°06' W 080°07'0 0.0
2014-Nov-15 15:26N 26°06' W 080°07'1 1.2
2014-Nov-15 14:28N 26°07' W 080°06'0 0.0
2014-Nov-15 13:31N 26°07' W 080°06'0 0.0
2014-Nov-15 12:31N 26°07' W 080°06'0 0.0
2014-Nov-15 11:31N 26°07' W 080°06'0 0.0
2014-Nov-15 10:31N 26°07' W 080°06'0 0.0
2014-Nov-15 09:31N 26°07' W 080°06'0 0.0
2014-Nov-15 08:31N 26°07' W 080°06'0 0.0
2014-Nov-15 07:31N 26°07' W 080°06'0 0.0
2014-Nov-15 06:22N 26°07' W 080°06'0 0.0
2014-Nov-15 05:25N 26°07' W 080°06'0 0.0
2014-Nov-15 04:25N 26°07' W 080°06'0 0.0
2014-Nov-15 03:28N 26°07' W 080°06'0 0.0
2014-Nov-15 02:28N 26°07' W 080°06'0 0.0
2014-Nov-15 01:31N 26°07' W 080°06'0 0.0
2014-Nov-15 00:31N 26°07' W 080°06'0 0.0
2014-Nov-14 23:31N 26°07' W 080°06'0 0.0
2014-Nov-14 22:31N 26°07' W 080°06'0 0.0
2014-Nov-14 21:31N 26°07' W 080°06'0 0.0
2014-Nov-14 20:31N 26°07' W 080°06'0 0.0
2014-Nov-14 19:31N 26°07' W 080°06'0 0.0
2014-Nov-14 18:22N 26°07' W 080°06'0 0.0
2014-Nov-14 17:22N 26°07' W 080°06'0 0.0
2014-Nov-14 16:25N 26°07' W 080°06'0 0.0
2014-Nov-14 15:25N 26°07' W 080°06'0 0.0
2014-Nov-14 14:28N 26°07' W 080°06'0 0.0
2014-Nov-14 12:31N 26°07' W 080°06'0 0.0
2014-Nov-14 11:31N 26°07' W 080°06'0 0.0
2014-Nov-14 10:31N 26°07' W 080°06'0 0.0
2014-Nov-14 09:31N 26°07' W 080°06'0 0.0
2014-Nov-14 08:31N 26°07' W 080°06'0 0.0
2014-Nov-14 07:31N 26°07' W 080°06'0 0.0
2014-Nov-14 06:22N 26°07' W 080°06'0 0.0
2014-Nov-14 05:25N 26°07' W 080°06'0 0.0
2014-Nov-14 04:25N 26°07' W 080°06'0 0.0
2014-Nov-14 03:25N 26°07' W 080°06'0 0.0
2014-Nov-14 02:28N 26°07' W 080°06'0 0.0
2014-Nov-14 01:28N 26°07' W 080°06'0 0.0
2014-Nov-14 00:31N 26°07' W 080°06'0 0.0
2014-Nov-13 23:31N 26°07' W 080°06'0 0.0
2014-Nov-13 22:31N 26°07' W 080°06'0 0.0
2014-Nov-13 21:31N 26°07' W 080°06'0 0.0
2014-Nov-13 20:31N 26°07' W 080°06'0 0.0
2014-Nov-13 19:31N 26°07' W 080°06'0 0.0
2014-Nov-13 18:31N 26°07' W 080°06'0 0.0
2014-Nov-13 17:22N 26°07' W 080°06'0 0.0
2014-Nov-13 16:25N 26°07' W 080°06'0 0.0
2014-Nov-13 15:22N 26°07' W 080°06'0 0.0
2014-Nov-13 14:28N 26°07' W 080°06'0 0.0
2014-Nov-13 13:28N 26°07' W 080°06'0 0.0
2014-Nov-13 12:28N 26°07' W 080°06'0 0.0
2014-Nov-13 11:31N 26°07' W 080°06'0 0.0
2014-Nov-13 10:31N 26°07' W 080°06'0 0.0
2014-Nov-13 09:31N 26°07' W 080°06'0 0.0
2014-Nov-13 08:31N 26°07' W 080°06'0 0.0
2014-Nov-13 07:31N 26°07' W 080°06'0 0.0
2014-Nov-13 06:31N 26°07' W 080°06'0 0.0
2014-Nov-13 05:22N 26°07' W 080°06'0 0.0
2014-Nov-13 04:25N 26°07' W 080°06'0 0.0
2014-Nov-13 03:25N 26°07' W 080°06'0 0.0
2014-Nov-13 02:28N 26°07' W 080°06'0 0.0
2014-Nov-13 01:28N 26°07' W 080°06'0 0.0
2014-Nov-13 00:28N 26°07' W 080°06'0 0.0
2014-Nov-12 23:31N 26°07' W 080°06'0 0.0
2014-Nov-12 22:31N 26°07' W 080°06'0 0.0
2014-Nov-12 21:31N 26°07' W 080°06'0 0.0
2014-Nov-12 20:31N 26°07' W 080°06'0 0.0
2014-Nov-12 19:19N 26°07' W 080°06'0 0.0
2014-Nov-12 18:23N 26°07' W 080°06'0 0.0
2014-Nov-12 17:26N 26°07' W 080°06'1 0.0
2014-Nov-11 15:18N 26°06' W 080°08'0 0.0
2014-Nov-11 14:33N 26°06' W 080°08'0 0.0
2014-Nov-11 13:05N 26°06' W 080°08'0 0.0
2014-Nov-11 12:32N 26°06' W 080°08'0 0.0
2014-Nov-11 11:32N 26°06' W 080°08'0 0.0
2014-Nov-11 10:32N 26°06' W 080°08'0 0.0
2014-Nov-11 09:23N 26°06' W 080°08'0 0.0
2014-Nov-11 08:26N 26°06' W 080°08'0 0.0
2014-Nov-11 07:26N 26°06' W 080°08'0 0.0
2014-Nov-11 06:26N 26°06' W 080°08'0 0.0
2014-Nov-11 04:33N 26°06' W 080°08'0 0.0
2014-Nov-11 03:29N 26°06' W 080°08'0 0.0
2014-Nov-11 02:33N 26°06' W 080°08'0 0.0
2014-Nov-11 01:26N 26°06' W 080°08'0 0.0
2014-Nov-11 00:30N 26°06' W 080°08'0 0.0
2014-Nov-10 23:29N 26°06' W 080°08'0 0.0
2014-Nov-10 22:29N 26°06' W 080°08'0 0.0
2014-Nov-10 21:32N 26°06' W 080°08'0 0.0
2014-Nov-10 20:05N 26°06' W 080°08'0 0.0
2014-Nov-10 19:23N 26°06' W 080°08'0 0.0
2014-Nov-10 18:26N 26°06' W 080°08'0 0.0
2014-Nov-10 17:26N 26°06' W 080°08'0 0.0
2014-Nov-10 15:25N 26°06' W 080°08'0 0.0
2014-Nov-10 13:11N 26°06' W 080°08'0 0.0
2014-Nov-10 12:32N 26°06' W 080°08'0 0.0
2014-Nov-10 11:32N 26°06' W 080°08'0 0.0
2014-Nov-10 10:32N 26°06' W 080°08'0 0.0
2014-Nov-10 09:32N 26°06' W 080°08'0 0.0
2014-Nov-10 08:32N 26°06' W 080°08'0 0.0
2014-Nov-10 07:23N 26°06' W 080°08'0 0.0
2014-Nov-10 06:33N 26°06' W 080°08'0 0.0
2014-Nov-10 04:31N 26°06' W 080°08'0 0.0
2014-Nov-10 03:31N 26°06' W 080°08'0 0.0
2014-Nov-10 02:25N 26°06' W 080°08'0 0.0
2014-Nov-10 01:22N 26°06' W 080°08'0 0.0
2014-Nov-10 00:32N 26°06' W 080°08'0 0.0
2014-Nov-09 23:22N 26°06' W 080°08'0 0.0
2014-Nov-09 22:32N 26°06' W 080°08'0 0.0
2014-Nov-09 21:31N 26°06' W 080°08'0 0.0
2014-Nov-09 20:12N 26°06' W 080°08'0 0.0
2014-Nov-09 19:27N 26°06' W 080°08'0 0.0
2014-Nov-09 18:33N 26°06' W 080°08'0 0.0
2014-Nov-09 17:32N 26°06' W 080°07'0 0.0
2014-Nov-09 16:33N 26°06' W 080°08'0 0.0
2014-Nov-09 15:22N 26°06' W 080°08'0 0.0
2014-Nov-09 14:10N 26°06' W 080°08'0 0.0
2014-Nov-09 13:19N 26°06' W 080°08'0 0.0
2014-Nov-09 12:25N 26°06' W 080°08'0 0.0
2014-Nov-09 11:28N 26°06' W 080°08'0 0.0
2014-Nov-09 10:28N 26°06' W 080°08'0 0.0
2014-Nov-09 09:28N 26°06' W 080°08'0 0.0
2014-Nov-09 08:31N 26°06' W 080°08'0 0.0
2014-Nov-09 07:31N 26°06' W 080°08'0 0.0
2014-Nov-09 06:31N 26°06' W 080°08'0 0.0
2014-Nov-09 05:08N 26°06' W 080°08'0 0.0
2014-Nov-09 04:33N 26°06' W 080°08'0 0.0
2014-Nov-09 03:31N 26°06' W 080°08'0 0.0
2014-Nov-09 02:31N 26°06' W 080°08'0 0.0
2014-Nov-09 01:22N 26°06' W 080°08'0 0.0
2014-Nov-09 00:19N 26°06' W 080°08'0 0.0
2014-Nov-08 23:25N 26°06' W 080°08'0 0.0
2014-Nov-08 22:32N 26°06' W 080°08'0 0.0
2014-Nov-08 21:33N 26°06' W 080°08'0 0.0
2014-Nov-08 20:17N 26°06' W 080°08'3 3.8
2014-Nov-08 19:30N 26°05' W 080°05'1 0.9
2014-Nov-08 18:29N 26°05' W 080°05'2 1.9
2014-Nov-08 17:23N 26°06' W 080°08'0 0.0
2014-Nov-08 16:32N 26°06' W 080°08'0 0.0
2014-Nov-08 15:31N 26°06' W 080°08'0 0.0
2014-Nov-08 14:31N 26°06' W 080°08'0 0.0
2014-Nov-08 13:30N 26°06' W 080°08'0 0.0
2014-Nov-08 12:33N 26°06' W 080°08'0 0.0
2014-Nov-08 11:31N 26°06' W 080°08'0 0.0
2014-Nov-08 10:22N 26°06' W 080°08'0 0.0
2014-Nov-08 09:22N 26°06' W 080°08'0 0.0
2014-Nov-08 08:25N 26°06' W 080°08'0 0.0
2014-Nov-08 07:25N 26°06' W 080°08'0 0.0
2014-Nov-08 06:28N 26°06' W 080°08'0 0.0
2014-Nov-08 05:18N 26°06' W 080°08'0 0.0
2014-Nov-08 04:26N 26°06' W 080°08'0 0.0
2014-Nov-08 03:30N 26°06' W 080°08'0 0.0
2014-Nov-08 02:30N 26°06' W 080°08'0 0.0
2014-Nov-08 01:30N 26°06' W 080°08'0 0.0
2014-Nov-08 00:30N 26°06' W 080°08'0 0.0
2014-Nov-07 23:33N 26°06' W 080°08'0 0.0
2014-Nov-07 22:33N 26°06' W 080°08'0 0.0
2014-Nov-07 20:19N 26°06' W 080°08'0 0.0
2014-Nov-07 19:31N 26°06' W 080°08'0 0.0
2014-Nov-07 18:28N 26°06' W 080°08'0 0.0
2014-Nov-07 17:28N 26°06' W 080°08'0 0.0
2014-Nov-07 16:31N 26°06' W 080°08'0 0.0
2014-Nov-07 15:27N 26°06' W 080°08'0 0.0
2014-Nov-07 14:23N 26°06' W 080°08'0 0.0
2014-Nov-07 13:29N 26°06' W 080°08'0 0.0
2014-Nov-07 12:32N 26°06' W 080°08'0 0.0
2014-Nov-07 11:31N 26°06' W 080°08'0 0.0
2014-Nov-07 10:31N 26°06' W 080°08'0 0.0
2014-Nov-07 09:31N 26°06' W 080°08'0 0.0
2014-Nov-07 08:31N 26°06' W 080°08'0 0.0
2014-Nov-07 07:22N 26°06' W 080°08'0 0.0
2014-Nov-07 06:25N 26°06' W 080°08'0 0.0
2014-Nov-07 05:20N 26°06' W 080°08'0 0.0
2014-Nov-07 04:32N 26°06' W 080°08'0 0.0
2014-Nov-07 03:32N 26°06' W 080°08'0 0.0
2014-Nov-07 02:31N 26°06' W 080°08'0 0.0
2014-Nov-07 01:22N 26°06' W 080°08'0 0.0
2014-Nov-07 00:22N 26°06' W 080°08'0 0.0
2014-Nov-06 23:32N 26°06' W 080°08'0 0.0
2014-Nov-06 22:29N 26°06' W 080°08'0 0.0
2014-Nov-06 21:27N 26°06' W 080°08'0 0.0
2014-Nov-06 20:22N 26°06' W 080°08'0 0.0
2014-Nov-06 19:25N 26°06' W 080°08'0 0.0
2014-Nov-06 18:28N 26°06' W 080°08'0 0.0
2014-Nov-06 17:28N 26°06' W 080°08'0 0.0
2014-Nov-06 16:31N 26°06' W 080°08'  
Track history (hours):
 
Tides and Currents Weather Stations Pressure Air Temp Water Temp Dewpoint Dewpoint Depression Visibility Wind Speed Wind Dir Waves Ship Positions

C1

Last reported at 2014-Nov-16 16:20 UTC. Time now 2014-Nov-29 02:25 UTC.
Position N 26°02' W 079°37'.
Warning: this ship's position is 12 days out of date.

Length 30 m.

Type: Pleasure craft. MMSI: 338093905.

Date/timePositionNaut miles runAvg speedWind from/ knotsBaromVisibWave heightAir tempDewpointWater temp
2014-Nov-16 16:20N 26°02' W 079°37'8 9.2
2014-Nov-16 15:31N 26°03' W 079°45'9 9.2
2014-Nov-16 14:30N 26°04' W 079°55'9 9.7
2014-Nov-16 13:33N 26°06' W 080°05'2 1.7
2014-Nov-16 12:32N 26°07' W 080°06'0 0.0
2014-Nov-16 11:32N 26°07' W 080°06'0 0.0
2014-Nov-16 10:23N 26°07' W 080°06'0 0.0
2014-Nov-16 09:26N 26°07' W 080°06'0 0.0
2014-Nov-16 08:26N 26°07' W 080°06'0 0.0
2014-Nov-16 07:29N 26°07' W 080°06'0 0.0
2014-Nov-16 06:29N 26°07' W 080°06'0 0.0
2014-Nov-16 05:26N 26°07' W 080°06'0 0.0
2014-Nov-16 04:32N 26°07' W 080°06'0 0.0
2014-Nov-16 03:29N 26°07' W 080°06'0 0.0
2014-Nov-16 02:32N 26°07' W 080°06'0 0.0
2014-Nov-16 01:32N 26°07' W 080°06'0 0.0
2014-Nov-16 00:32N 26°07' W 080°06'0 0.0
2014-Nov-15 23:32N 26°07' W 080°06'0 0.0
2014-Nov-15 22:23N 26°07' W 080°06'0 0.0
2014-Nov-15 21:26N 26°07' W 080°06'0 0.0
2014-Nov-15 20:26N 26°07' W 080°06'0 0.0
2014-Nov-15 19:26N 26°07' W 080°06'1 0.8
2014-Nov-15 18:28N 26°06' W 080°07'1 0.5
2014-Nov-15 17:23N 26°06' W 080°07'0 0.0
2014-Nov-15 16:26N 26°06' W 080°07'0 0.0
2014-Nov-15 15:26N 26°06' W 080°07'1 1.2
2014-Nov-15 14:28N 26°07' W 080°06'0 0.0
2014-Nov-15 13:31N 26°07' W 080°06'0 0.0
2014-Nov-15 12:31N 26°07' W 080°06'0 0.0
2014-Nov-15 11:31N 26°07' W 080°06'0 0.0
2014-Nov-15 10:31N 26°07' W 080°06'0 0.0
2014-Nov-15 09:31N 26°07' W 080°06'0 0.0
2014-Nov-15 08:31N 26°07' W 080°06'0 0.0
2014-Nov-15 07:31N 26°07' W 080°06'0 0.0
2014-Nov-15 06:22N 26°07' W 080°06'0 0.0
2014-Nov-15 05:25N 26°07' W 080°06'0 0.0
2014-Nov-15 04:25N 26°07' W 080°06'0 0.0
2014-Nov-15 03:28N 26°07' W 080°06'0 0.0
2014-Nov-15 02:28N 26°07' W 080°06'0 0.0
2014-Nov-15 01:31N 26°07' W 080°06'0 0.0
2014-Nov-15 00:31N 26°07' W 080°06'0 0.0
2014-Nov-14 23:31N 26°07' W 080°06'0 0.0
2014-Nov-14 22:31N 26°07' W 080°06'0 0.0
2014-Nov-14 21:31N 26°07' W 080°06'0 0.0
2014-Nov-14 20:31N 26°07' W 080°06'0 0.0
2014-Nov-14 19:31N 26°07' W 080°06'0 0.0
2014-Nov-14 18:22N 26°07' W 080°06'0 0.0
2014-Nov-14 17:22N 26°07' W 080°06'0 0.0
2014-Nov-14 16:25N 26°07' W 080°06'0 0.0
2014-Nov-14 15:25N 26°07' W 080°06'0 0.0
2014-Nov-14 14:28N 26°07' W 080°06'0 0.0
2014-Nov-14 12:31N 26°07' W 080°06'0 0.0
2014-Nov-14 11:31N 26°07' W 080°06'0 0.0
2014-Nov-14 10:31N 26°07' W 080°06'0 0.0
2014-Nov-14 09:31N 26°07' W 080°06'0 0.0
2014-Nov-14 08:31N 26°07' W 080°06'0 0.0
2014-Nov-14 07:31N 26°07' W 080°06'0 0.0
2014-Nov-14 06:22N 26°07' W 080°06'0 0.0
2014-Nov-14 05:25N 26°07' W 080°06'0 0.0
2014-Nov-14 04:25N 26°07' W 080°06'0 0.0
2014-Nov-14 03:25N 26°07' W 080°06'0 0.0
2014-Nov-14 02:28N 26°07' W 080°06'0 0.0
2014-Nov-14 01:28N 26°07' W 080°06'0 0.0
2014-Nov-14 00:31N 26°07' W 080°06'0 0.0
2014-Nov-13 23:31N 26°07' W 080°06'0 0.0
2014-Nov-13 22:31N 26°07' W 080°06'0 0.0
2014-Nov-13 21:31N 26°07' W 080°06'0 0.0
2014-Nov-13 20:31N 26°07' W 080°06'0 0.0
2014-Nov-13 19:31N 26°07' W 080°06'0 0.0
2014-Nov-13 18:31N 26°07' W 080°06'0 0.0
2014-Nov-13 17:22N 26°07' W 080°06'0 0.0
2014-Nov-13 16:25N 26°07' W 080°06'0 0.0
2014-Nov-13 15:22N 26°07' W 080°06'0 0.0
2014-Nov-13 14:28N 26°07' W 080°06'0 0.0
2014-Nov-13 13:28N 26°07' W 080°06'0 0.0
2014-Nov-13 12:28N 26°07' W 080°06'0 0.0
2014-Nov-13 11:31N 26°07' W 080°06'0 0.0
2014-Nov-13 10:31N 26°07' W 080°06'0 0.0
2014-Nov-13 09:31N 26°07' W 080°06'0 0.0
2014-Nov-13 08:31N 26°07' W 080°06'0 0.0
2014-Nov-13 07:31N 26°07' W 080°06'0 0.0
2014-Nov-13 06:31N 26°07' W 080°06'0 0.0
2014-Nov-13 05:22N 26°07' W 080°06'0 0.0
2014-Nov-13 04:25N 26°07' W 080°06'0 0.0
2014-Nov-13 03:25N 26°07' W 080°06'0 0.0
2014-Nov-13 02:28N 26°07' W 080°06'0 0.0
2014-Nov-13 01:28N 26°07' W 080°06'0 0.0
2014-Nov-13 00:28N 26°07' W 080°06'0 0.0
2014-Nov-12 23:31N 26°07' W 080°06'0 0.0
2014-Nov-12 22:31N 26°07' W 080°06'0 0.0
2014-Nov-12 21:31N 26°07' W 080°06'0 0.0
2014-Nov-12 20:31N 26°07' W 080°06'0 0.0
2014-Nov-12 19:19N 26°07' W 080°06'0 0.0
2014-Nov-12 18:23N 26°07' W 080°06'0 0.0
2014-Nov-12 17:26N 26°07' W 080°06'1 0.0
2014-Nov-11 15:18N 26°06' W 080°08'0 0.0
2014-Nov-11 14:33N 26°06' W 080°08'0 0.0
2014-Nov-11 13:05N 26°06' W 080°08'0 0.0
2014-Nov-11 12:32N 26°06' W 080°08'0 0.0
2014-Nov-11 11:32N 26°06' W 080°08'0 0.0
2014-Nov-11 10:32N 26°06' W 080°08'0 0.0
2014-Nov-11 09:23N 26°06' W 080°08'0 0.0
2014-Nov-11 08:26N 26°06' W 080°08'0 0.0
2014-Nov-11 07:26N 26°06' W 080°08'0 0.0
2014-Nov-11 06:26N 26°06' W 080°08'0 0.0
2014-Nov-11 04:33N 26°06' W 080°08'0 0.0
2014-Nov-11 03:29N 26°06' W 080°08'0 0.0
2014-Nov-11 02:33N 26°06' W 080°08'0 0.0
2014-Nov-11 01:26N 26°06' W 080°08'0 0.0
2014-Nov-11 00:30N 26°06' W 080°08'0 0.0
2014-Nov-10 23:29N 26°06' W 080°08'0 0.0
2014-Nov-10 22:29N 26°06' W 080°08'0 0.0
2014-Nov-10 21:32N 26°06' W 080°08'0 0.0
2014-Nov-10 20:05N 26°06' W 080°08'0 0.0
2014-Nov-10 19:23N 26°06' W 080°08'0 0.0
2014-Nov-10 18:26N 26°06' W 080°08'0 0.0
2014-Nov-10 17:26N 26°06' W 080°08'0 0.0
2014-Nov-10 15:25N 26°06' W 080°08'0 0.0
2014-Nov-10 13:11N 26°06' W 080°08'0 0.0
2014-Nov-10 12:32N 26°06' W 080°08'0 0.0
2014-Nov-10 11:32N 26°06' W 080°08'0 0.0
2014-Nov-10 10:32N 26°06' W 080°08'0 0.0
2014-Nov-10 09:32N 26°06' W 080°08'0 0.0
2014-Nov-10 08:32N 26°06' W 080°08'0 0.0
2014-Nov-10 07:23N 26°06' W 080°08'0 0.0
2014-Nov-10 06:33N 26°06' W 080°08'0 0.0
2014-Nov-10 04:31N 26°06' W 080°08'0 0.0
2014-Nov-10 03:31N 26°06' W 080°08'0 0.0
2014-Nov-10 02:25N 26°06' W 080°08'0 0.0
2014-Nov-10 01:22N 26°06' W 080°08'0 0.0
2014-Nov-10 00:32N 26°06' W 080°08'0 0.0
2014-Nov-09 23:22N 26°06' W 080°08'0 0.0
2014-Nov-09 22:32N 26°06' W 080°08'0 0.0
2014-Nov-09 21:31N 26°06' W 080°08'0 0.0
2014-Nov-09 20:12N 26°06' W 080°08'0 0.0
2014-Nov-09 19:27N 26°06' W 080°08'0 0.0
2014-Nov-09 18:33N 26°06' W 080°08'0 0.0
2014-Nov-09 17:32N 26°06' W 080°07'0 0.0
2014-Nov-09 16:33N 26°06' W 080°08'0 0.0
2014-Nov-09 15:22N 26°06' W 080°08'0 0.0
2014-Nov-09 14:10N 26°06' W 080°08'0 0.0
2014-Nov-09 13:19N 26°06' W 080°08'0 0.0
2014-Nov-09 12:25N 26°06' W 080°08'0 0.0
2014-Nov-09 11:28N 26°06' W 080°08'0 0.0
2014-Nov-09 10:28N 26°06' W 080°08'0 0.0
2014-Nov-09 09:28N 26°06' W 080°08'0 0.0
2014-Nov-09 08:31N 26°06' W 080°08'0 0.0
2014-Nov-09 07:31N 26°06' W 080°08'0 0.0
2014-Nov-09 06:31N 26°06' W 080°08'0 0.0
2014-Nov-09 05:08N 26°06' W 080°08'0 0.0
2014-Nov-09 04:33N 26°06' W 080°08'0 0.0
2014-Nov-09 03:31N 26°06' W 080°08'0 0.0
2014-Nov-09 02:31N 26°06' W 080°08'0 0.0
2014-Nov-09 01:22N 26°06' W 080°08'0 0.0
2014-Nov-09 00:19N 26°06' W 080°08'0 0.0
2014-Nov-08 23:25N 26°06' W 080°08'0 0.0
2014-Nov-08 22:32N 26°06' W 080°08'0 0.0
2014-Nov-08 21:33N 26°06' W 080°08'0 0.0
2014-Nov-08 20:17N 26°06' W 080°08'3 3.8
2014-Nov-08 19:30N 26°05' W 080°05'1 0.9
2014-Nov-08 18:29N 26°05' W 080°05'2 1.9
2014-Nov-08 17:23N 26°06' W 080°08'0 0.0
2014-Nov-08 16:32N 26°06' W 080°08'0 0.0
2014-Nov-08 15:31N 26°06' W 080°08'0 0.0
2014-Nov-08 14:31N 26°06' W 080°08'0 0.0
2014-Nov-08 13:30N 26°06' W 080°08'0 0.0
2014-Nov-08 12:33N 26°06' W 080°08'0 0.0
2014-Nov-08 11:31N 26°06' W 080°08'0 0.0
2014-Nov-08 10:22N 26°06' W 080°08'0 0.0
2014-Nov-08 09:22N 26°06' W 080°08'0 0.0
2014-Nov-08 08:25N 26°06' W 080°08'0 0.0
2014-Nov-08 07:25N 26°06' W 080°08'0 0.0
2014-Nov-08 06:28N 26°06' W 080°08'0 0.0
2014-Nov-08 05:18N 26°06' W 080°08'0 0.0
2014-Nov-08 04:26N 26°06' W 080°08'0 0.0
2014-Nov-08 03:30N 26°06' W 080°08'0 0.0
2014-Nov-08 02:30N 26°06' W 080°08'0 0.0
2014-Nov-08 01:30N 26°06' W 080°08'0 0.0
2014-Nov-08 00:30N 26°06' W 080°08'0 0.0
2014-Nov-07 23:33N 26°06' W 080°08'0 0.0
2014-Nov-07 22:33N 26°06' W 080°08'0 0.0
2014-Nov-07 20:19N 26°06' W 080°08'0 0.0
2014-Nov-07 19:31N 26°06' W 080°08'0 0.0
2014-Nov-07 18:28N 26°06' W 080°08'0 0.0
2014-Nov-07 17:28N 26°06' W 080°08'0 0.0
2014-Nov-07 16:31N 26°06' W 080°08'0 0.0
2014-Nov-07 15:27N 26°06' W 080°08'0 0.0
2014-Nov-07 14:23N 26°06' W 080°08'0 0.0
2014-Nov-07 13:29N 26°06' W 080°08'0 0.0
2014-Nov-07 12:32N 26°06' W 080°08'0 0.0
2014-Nov-07 11:31N 26°06' W 080°08'0 0.0
2014-Nov-07 10:31N 26°06' W 080°08'0 0.0
2014-Nov-07 09:31N 26°06' W 080°08'0 0.0
2014-Nov-07 08:31N 26°06' W 080°08'0 0.0
2014-Nov-07 07:22N 26°06' W 080°08'0 0.0
2014-Nov-07 06:25N 26°06' W 080°08'0 0.0
2014-Nov-07 05:20N 26°06' W 080°08'0 0.0
2014-Nov-07 04:32N 26°06' W 080°08'0 0.0
2014-Nov-07 03:32N 26°06' W 080°08'0 0.0
2014-Nov-07 02:31N 26°06' W 080°08'0 0.0
2014-Nov-07 01:22N 26°06' W 080°08'0 0.0
2014-Nov-07 00:22N 26°06' W 080°08'0 0.0
2014-Nov-06 23:32N 26°06' W 080°08'0 0.0
2014-Nov-06 22:29N 26°06' W 080°08'0 0.0
2014-Nov-06 21:27N 26°06' W 080°08'0 0.0
2014-Nov-06 20:22N 26°06' W 080°08'0 0.0
2014-Nov-06 19:25N 26°06' W 080°08'0 0.0
2014-Nov-06 18:28N 26°06' W 080°08'0 0.0
2014-Nov-06 17:28N 26°06' W 080°08'0 0.0
2014-Nov-06 16:31N 26°06' W 080°08'  

Dump ship's entire track history